createdAt,value
2023-02-12T00:01:49.062Z,5.97
2023-02-12T00:04:16.610Z,4.65
2023-02-12T00:06:43.106Z,5.43
2023-02-12T00:09:09.601Z,9.20
2023-02-12T00:11:36.277Z,3.63
2023-02-12T00:14:05.163Z,3.95
2023-02-12T00:16:31.745Z,5.03
2023-02-12T00:18:58.871Z,10.25
2023-02-12T00:21:25.544Z,3.40
2023-02-12T00:23:52.067Z,5.72
2023-02-12T00:26:19.537Z,5.47
2023-02-12T00:28:46.020Z,3.95
2023-02-12T00:31:14.052Z,2.63
2023-02-12T00:33:40.883Z,5.93
2023-02-12T00:36:08.467Z,3.85
2023-02-12T00:38:35.201Z,2.75
2023-02-12T00:41:02.106Z,3.45
2023-02-12T00:43:28.569Z,4.53
2023-02-12T00:45:55.451Z,5.70
2023-02-12T00:48:22.254Z,2.60
2023-02-12T00:50:49.860Z,3.50
2023-02-12T00:53:16.477Z,2.30
2023-02-12T00:55:43.085Z,1.58
2023-02-12T00:58:09.572Z,3.60
2023-02-12T01:00:36.054Z,7.43
2023-02-12T01:03:02.553Z,1.55
2023-02-12T01:05:29.040Z,4.68
2023-02-12T01:07:56.287Z,4.90
2023-02-12T01:10:23.010Z,3.38
2023-02-12T01:12:49.856Z,3.60
2023-02-12T01:15:17.199Z,5.15
2023-02-12T01:17:43.695Z,3.72
2023-02-12T01:20:12.123Z,3.28
2023-02-12T01:22:39.340Z,4.07
2023-02-12T01:25:06.442Z,4.63
2023-02-12T01:27:32.996Z,4.32
2023-02-12T01:29:59.567Z,4.28
2023-02-12T01:32:26.055Z,1.85
2023-02-12T01:34:52.757Z,2.15
2023-02-12T01:37:19.240Z,5.95
2023-02-12T01:39:45.725Z,3.65
2023-02-12T01:42:12.982Z,2.38
2023-02-12T01:44:44.138Z,3.53
2023-02-12T01:47:17.331Z,3.35
2023-02-12T01:49:46.373Z,5.90
2023-02-12T01:52:27.480Z,3.80
2023-02-12T01:54:57.169Z,4.53
2023-02-12T01:57:24.716Z,4.63
2023-02-12T01:59:52.564Z,8.73
2023-02-12T02:02:19.507Z,1.85
2023-02-12T02:04:52.049Z,1.88
2023-02-12T02:07:18.638Z,2.95
2023-02-12T02:09:45.835Z,6.13
2023-02-12T02:12:30.785Z,1.73
2023-02-12T02:14:58.605Z,4.45
2023-02-12T02:17:33.511Z,4.10
2023-02-12T02:20:15.344Z,4.05
2023-02-12T02:23:00.452Z,4.38
2023-02-12T02:25:35.952Z,3.03
2023-02-12T02:28:20.793Z,3.97
2023-02-12T02:31:06.047Z,5.03
2023-02-12T02:33:44.670Z,3.05
2023-02-12T02:36:13.892Z,2.80
2023-02-12T02:38:40.331Z,4.38
2023-02-12T02:41:09.892Z,3.58
2023-02-12T02:43:40.954Z,2.42
2023-02-12T02:46:09.978Z,2.80
2023-02-12T02:48:42.126Z,2.70
2023-02-12T02:51:10.569Z,3.67
2023-02-12T02:53:43.475Z,3.15
2023-02-12T02:56:13.768Z,3.10
2023-02-12T02:58:42.844Z,2.30
2023-02-12T03:01:09.507Z,5.13
2023-02-12T03:03:49.048Z,3.03
2023-02-12T03:06:22.365Z,2.65
2023-02-12T03:08:54.536Z,5.22
2023-02-12T03:11:28.816Z,4.15
2023-02-12T03:14:04.109Z,3.10
2023-02-12T03:17:02.880Z,4.95
2023-02-12T03:19:30.995Z,3.38
2023-02-12T03:22:20.915Z,3.67
2023-02-12T03:24:56.019Z,4.90
2023-02-12T03:27:25.509Z,3.60
2023-02-12T03:29:52.122Z,2.30
2023-02-12T03:32:18.581Z,3.63
2023-02-12T03:34:58.806Z,4.55
2023-02-12T03:37:29.489Z,3.72
2023-02-12T03:40:03.246Z,6.68
2023-02-12T03:42:39.861Z,5.15
2023-02-12T03:45:26.814Z,7.07
2023-02-12T03:47:59.557Z,3.15
2023-02-12T03:50:28.778Z,2.83
2023-02-12T03:52:55.310Z,2.10
2023-02-12T03:55:21.791Z,4.10
2023-02-12T03:57:50.595Z,2.20
2023-02-12T04:00:18.889Z,2.90
2023-02-12T04:02:45.479Z,2.60
2023-02-12T04:05:20.187Z,3.15
2023-02-12T04:07:46.981Z,2.03
2023-02-12T04:10:14.061Z,4.82
2023-02-12T04:12:45.333Z,4.75
2023-02-12T04:15:21.248Z,2.10
2023-02-12T04:17:51.203Z,2.05
2023-02-12T04:20:17.851Z,3.20
2023-02-12T04:22:56.656Z,2.03
2023-02-12T04:25:26.008Z,2.50
2023-02-12T04:28:11.262Z,2.97
2023-02-12T04:30:40.868Z,2.33
2023-02-12T04:33:09.607Z,6.57
2023-02-12T04:35:43.309Z,3.15
2023-02-12T04:38:15.860Z,2.28
2023-02-12T04:40:42.814Z,6.63
2023-02-12T04:43:09.387Z,1.85
2023-02-12T04:45:36.338Z,3.85
2023-02-12T04:48:03.668Z,2.88
2023-02-12T04:50:37.792Z,3.17
2023-02-12T04:55:43.181Z,4.18
2023-02-12T04:58:09.957Z,2.28
2023-02-12T05:00:36.608Z,2.05
2023-02-12T05:03:03.274Z,2.55
2023-02-12T05:05:29.803Z,3.08
2023-02-12T05:07:56.335Z,6.40
2023-02-12T05:10:23.190Z,2.72
2023-02-12T05:12:51.990Z,3.80
2023-02-12T05:15:18.506Z,2.80
2023-02-12T05:17:45.898Z,5.00
2023-02-12T05:20:13.216Z,3.40
2023-02-12T05:22:39.953Z,1.83
2023-02-12T05:25:06.618Z,6.40
2023-02-12T05:27:33.176Z,4.28
2023-02-12T05:29:59.686Z,5.28
2023-02-12T05:32:26.145Z,2.08
2023-02-12T05:34:52.856Z,2.65
2023-02-12T05:37:19.327Z,2.90
2023-02-12T05:39:45.935Z,4.10
2023-02-12T05:42:12.425Z,2.80
2023-02-12T05:44:38.953Z,3.70
2023-02-12T05:47:05.438Z,4.63
2023-02-12T05:49:31.911Z,5.03
2023-02-12T05:51:58.362Z,2.13
2023-02-12T05:54:24.860Z,3.38
2023-02-12T05:56:51.343Z,4.53
2023-02-12T05:59:19.243Z,4.63
2023-02-12T06:01:46.805Z,1.98
2023-02-12T06:04:14.909Z,1.92
2023-02-12T06:06:42.357Z,2.75
2023-02-12T06:09:10.205Z,2.47
2023-02-12T06:11:36.905Z,3.15
2023-02-12T06:14:04.344Z,5.47
2023-02-12T06:16:31.021Z,3.33
2023-02-12T06:18:57.925Z,2.55
2023-02-12T06:21:25.488Z,5.00
2023-02-12T06:23:52.389Z,2.85
2023-02-12T06:26:19.072Z,3.03
2023-02-12T06:28:45.869Z,5.20
2023-02-12T06:31:17.712Z,3.83
2023-02-12T06:33:44.292Z,3.20
2023-02-12T06:36:10.825Z,4.80
2023-02-12T06:38:37.352Z,3.17
2023-02-12T06:41:04.646Z,2.88
2023-02-12T06:43:31.308Z,5.60
2023-02-12T06:46:00.780Z,2.50
2023-02-12T06:48:27.347Z,4.85
2023-02-12T06:50:53.820Z,5.18
2023-02-12T06:53:20.310Z,4.82
2023-02-12T06:55:46.809Z,3.35
2023-02-12T06:58:13.273Z,3.08
2023-02-12T07:00:39.802Z,3.63
2023-02-12T07:03:06.385Z,5.25
2023-02-12T07:05:32.896Z,1.95
2023-02-12T07:07:59.382Z,2.53
2023-02-12T07:10:25.872Z,3.38
2023-02-12T07:12:52.324Z,5.93
2023-02-12T07:15:18.826Z,3.30
2023-02-12T07:17:45.289Z,6.93
2023-02-12T07:20:12.028Z,3.58
2023-02-12T07:22:38.556Z,3.78
2023-02-12T07:25:05.201Z,3.45
2023-02-12T07:27:31.670Z,2.72
2023-02-12T07:29:58.170Z,3.67
2023-02-12T07:32:24.644Z,3.80
2023-02-12T07:34:51.213Z,2.33
2023-02-12T07:37:22.648Z,2.53
2023-02-12T07:39:49.439Z,3.03
2023-02-12T07:42:16.009Z,2.97
2023-02-12T07:44:42.478Z,3.38
2023-02-12T07:47:09.021Z,1.92
2023-02-12T07:49:35.600Z,3.40
2023-02-12T07:52:02.115Z,2.28
2023-02-12T07:54:28.641Z,2.70
2023-02-12T07:56:55.160Z,3.08
2023-02-12T07:59:21.779Z,2.40
2023-02-12T08:01:49.470Z,4.93
2023-02-12T08:04:17.654Z,4.10
2023-02-12T08:06:45.306Z,2.35
2023-02-12T08:09:13.277Z,2.40
2023-02-12T08:11:40.528Z,4.30
2023-02-12T08:14:07.445Z,3.42
2023-02-12T08:16:37.682Z,2.40
2023-02-12T08:19:16.595Z,5.00
2023-02-12T08:21:47.353Z,2.30
2023-02-12T08:24:14.156Z,5.25
2023-02-12T08:26:40.889Z,3.80
2023-02-12T08:29:08.713Z,3.60
2023-02-12T08:31:39.812Z,2.95
2023-02-12T08:34:06.598Z,4.70
2023-02-12T08:36:40.419Z,2.50
2023-02-12T08:41:33.737Z,3.15
2023-02-12T08:44:01.385Z,2.70
2023-02-12T08:46:29.183Z,2.90
2023-02-12T08:48:56.905Z,2.72
2023-02-12T08:51:24.423Z,1.55
2023-02-12T08:53:55.185Z,2.78
2023-02-12T08:56:22.289Z,2.58
2023-02-12T08:58:49.286Z,2.90
2023-02-12T09:01:17.259Z,2.63
2023-02-12T09:03:44.130Z,2.63
2023-02-12T09:06:10.809Z,2.95
2023-02-12T09:08:38.068Z,2.42
2023-02-12T09:11:06.093Z,2.35
2023-02-12T09:13:32.660Z,2.17
2023-02-12T09:16:00.537Z,1.70
2023-02-12T09:18:27.034Z,2.75
2023-02-12T09:20:53.512Z,1.70
2023-02-12T09:23:20.039Z,2.20
2023-02-12T09:25:46.855Z,2.53
2023-02-12T09:28:14.606Z,5.72
2023-02-12T09:30:41.226Z,3.85
2023-02-12T09:33:08.112Z,2.88
2023-02-12T09:35:35.198Z,2.25
2023-02-12T09:38:01.971Z,4.75
2023-02-12T09:40:35.941Z,1.80
2023-02-12T09:43:15.583Z,2.67
2023-02-12T09:45:45.107Z,2.10
2023-02-12T09:48:18.744Z,6.43
2023-02-12T09:50:45.268Z,2.08
2023-02-12T09:53:19.405Z,1.65
2023-02-12T09:55:46.257Z,3.17
2023-02-12T09:58:20.238Z,1.58
2023-02-12T10:00:46.714Z,2.92
2023-02-12T10:03:16.587Z,3.53
2023-02-12T10:05:46.048Z,2.05
2023-02-12T10:08:24.652Z,4.47
2023-02-12T10:10:51.358Z,3.15
2023-02-12T10:13:33.390Z,2.03
2023-02-12T10:16:06.836Z,2.47
2023-02-12T10:18:39.554Z,2.97
2023-02-12T10:21:05.982Z,5.40
2023-02-12T10:23:41.602Z,4.47
2023-02-12T10:26:17.317Z,3.50
2023-02-12T10:28:44.380Z,2.83
2023-02-12T10:31:31.410Z,2.03
2023-02-12T10:33:58.942Z,1.65
2023-02-12T10:36:25.482Z,1.58
2023-02-12T10:39:02.810Z,2.03
2023-02-12T10:41:30.582Z,2.70
2023-02-12T10:43:57.868Z,2.97
2023-02-12T10:46:24.383Z,3.15
2023-02-12T10:48:54.319Z,2.10
2023-02-12T10:51:38.264Z,1.75
2023-02-12T10:54:24.989Z,2.83
2023-02-12T10:56:51.725Z,1.70
2023-02-12T10:59:23.084Z,3.80
2023-02-12T11:01:49.698Z,2.22
2023-02-12T11:04:19.320Z,2.58
2023-02-12T11:06:59.504Z,2.65
2023-02-12T11:09:30.287Z,2.25
2023-02-12T11:11:56.836Z,3.72
2023-02-12T11:14:24.271Z,4.93
2023-02-12T11:16:55.407Z,1.80
2023-02-12T11:19:25.949Z,4.15
2023-02-12T11:21:52.673Z,2.45
2023-02-12T11:24:22.138Z,2.80
2023-02-12T11:26:48.604Z,2.13
2023-02-12T11:29:24.567Z,4.03
2023-02-12T11:32:01.673Z,1.55
2023-02-12T11:34:29.872Z,2.50
2023-02-12T11:36:57.035Z,5.63
2023-02-12T11:39:26.937Z,1.58
2023-02-12T11:41:57.695Z,1.83
2023-02-12T11:44:32.685Z,2.97
2023-02-12T11:47:02.271Z,3.58
2023-02-12T11:49:31.009Z,2.78
2023-02-12T11:51:57.931Z,2.38
2023-02-12T11:54:29.014Z,1.77
2023-02-12T11:56:55.663Z,1.98
2023-02-12T11:59:29.743Z,3.80
2023-02-12T12:01:57.866Z,8.48
2023-02-12T12:04:25.977Z,5.07
2023-02-12T12:06:55.481Z,3.92
2023-02-12T12:09:25.226Z,2.22
2023-02-12T12:11:54.698Z,3.60
2023-02-12T12:14:32.005Z,3.08
2023-02-12T12:17:20.083Z,3.50
2023-02-12T12:20:13.147Z,2.20
2023-02-12T12:22:49.839Z,5.13
2023-02-12T12:25:21.044Z,2.53
2023-02-12T12:28:05.928Z,2.70
2023-02-12T12:30:32.434Z,3.88
2023-02-12T12:33:00.891Z,2.00
2023-02-12T12:35:34.221Z,2.47
2023-02-12T12:38:09.741Z,2.42
2023-02-12T12:40:52.319Z,5.05
2023-02-12T12:43:26.315Z,2.22
2023-02-12T12:46:08.026Z,3.08
2023-02-12T12:48:52.487Z,2.60
2023-02-12T12:53:54.636Z,3.35
2023-02-12T12:56:21.283Z,4.80
2023-02-12T12:58:59.938Z,2.05
2023-02-12T13:01:26.482Z,2.70
2023-02-12T13:04:11.884Z,2.33
2023-02-12T13:06:38.346Z,1.63
2023-02-12T13:09:23.634Z,2.80
2023-02-12T13:12:05.360Z,4.38
2023-02-12T13:14:47.657Z,6.65
2023-02-12T13:17:21.301Z,3.78
2023-02-12T13:19:55.906Z,5.03
2023-02-12T13:22:34.339Z,3.10
2023-02-12T13:25:19.555Z,4.75
2023-02-12T13:27:46.557Z,4.25
2023-02-12T13:30:18.926Z,2.25
2023-02-12T13:32:46.333Z,2.78
2023-02-12T13:35:20.906Z,2.88
2023-02-12T13:37:49.112Z,5.03
2023-02-12T13:40:19.559Z,3.55
2023-02-12T13:42:50.912Z,4.25
2023-02-12T13:45:21.696Z,8.43
2023-02-12T13:47:59.273Z,7.22
2023-02-12T13:50:34.781Z,7.97
2023-02-12T13:53:20.850Z,6.18
2023-02-12T13:55:58.788Z,12.80
2023-02-12T13:58:34.927Z,11.75
2023-02-12T14:01:01.640Z,5.00
2023-02-12T14:03:28.941Z,3.08
2023-02-12T14:06:11.260Z,4.22
2023-02-12T14:08:40.086Z,4.68
2023-02-12T14:11:08.608Z,7.30
2023-02-12T14:13:53.860Z,4.97
2023-02-12T14:16:29.414Z,10.68
2023-02-12T14:19:14.346Z,4.03
2023-02-12T14:21:41.504Z,4.78
2023-02-12T14:24:26.901Z,8.25
2023-02-12T14:26:53.484Z,2.70
2023-02-12T14:29:24.400Z,4.05
2023-02-12T14:31:51.194Z,2.83
2023-02-12T14:34:18.190Z,3.90
2023-02-12T14:36:45.808Z,3.25
2023-02-12T14:39:22.114Z,2.70
2023-02-12T14:41:55.573Z,3.13
2023-02-12T14:44:27.415Z,2.90
2023-02-12T14:46:57.655Z,5.88
2023-02-12T14:49:24.154Z,2.67
2023-02-12T14:51:50.654Z,2.85
2023-02-12T14:54:21.941Z,3.95
2023-02-12T14:56:49.422Z,4.25
2023-02-12T14:59:17.937Z,6.60
2023-02-12T15:01:44.800Z,3.08
2023-02-12T15:04:34.933Z,3.38
2023-02-12T15:07:08.247Z,4.13
2023-02-12T15:09:41.718Z,2.45
2023-02-12T15:12:15.654Z,2.42
2023-02-12T15:14:45.470Z,3.42
2023-02-12T15:17:15.165Z,2.53
2023-02-12T15:19:44.720Z,2.28
2023-02-12T15:22:20.465Z,4.15
2023-02-12T15:24:47.029Z,5.07
2023-02-12T15:27:14.465Z,2.92
2023-02-12T15:29:45.889Z,2.20
2023-02-12T15:32:18.006Z,4.00
2023-02-12T15:34:47.984Z,2.67
2023-02-12T15:37:20.997Z,3.05
2023-02-12T15:39:52.423Z,4.17
2023-02-12T15:42:25.934Z,3.55
2023-02-12T15:44:52.439Z,5.15
2023-02-12T15:47:24.750Z,8.93
2023-02-12T15:49:51.243Z,5.88
2023-02-12T15:52:19.253Z,3.88
2023-02-12T15:54:47.016Z,9.10
2023-02-12T15:57:18.857Z,2.38
2023-02-12T15:59:49.494Z,2.88
2023-02-12T16:02:25.750Z,3.80
2023-02-12T16:04:52.531Z,3.97
2023-02-12T16:07:19.424Z,2.88
2023-02-12T16:09:46.582Z,2.60
2023-02-12T16:12:14.559Z,7.40
2023-02-12T16:14:51.927Z,4.25
2023-02-12T16:17:29.542Z,2.58
2023-02-12T16:19:57.337Z,2.35
2023-02-12T16:22:36.273Z,5.28
2023-02-12T16:25:03.995Z,5.72
2023-02-12T16:27:33.190Z,2.40
2023-02-12T16:30:01.365Z,4.85
2023-02-12T16:32:35.649Z,9.80
2023-02-12T16:35:05.087Z,3.05
2023-02-12T16:37:37.593Z,49.05
2023-02-12T16:40:04.081Z,40.97
2023-02-12T16:42:30.718Z,54.28
2023-02-12T16:44:57.604Z,61.25
2023-02-12T16:47:25.245Z,54.05
2023-02-12T16:49:59.138Z,37.35
2023-02-12T16:54:52.008Z,35.42
2023-02-12T16:57:18.497Z,39.83
2023-02-12T16:59:45.336Z,40.33
2023-02-12T17:02:12.927Z,36.35
2023-02-12T17:04:39.467Z,24.77
2023-02-12T17:07:29.270Z,25.92
2023-02-12T17:09:55.822Z,23.67
2023-02-12T17:12:22.661Z,24.15
2023-02-12T17:14:49.243Z,26.08
2023-02-12T17:17:15.741Z,27.67
2023-02-12T17:19:42.201Z,5.13
2023-02-12T17:22:15.257Z,18.25
2023-02-12T17:24:41.858Z,9.80
2023-02-12T17:27:11.643Z,8.20
2023-02-12T17:29:38.093Z,10.15
2023-02-12T17:32:04.781Z,10.20
2023-02-12T17:34:39.719Z,16.25
2023-02-12T17:37:13.750Z,27.63
2023-02-12T17:39:40.362Z,14.57
2023-02-12T17:42:07.245Z,12.15
2023-02-12T17:44:33.906Z,14.70
2023-02-12T17:47:00.367Z,9.90
2023-02-12T17:49:26.880Z,3.97
2023-02-12T17:51:53.494Z,13.98
2023-02-12T17:54:20.044Z,12.52
2023-02-12T17:56:46.644Z,6.40
2023-02-12T17:59:13.142Z,10.13
2023-02-12T18:01:41.116Z,4.72
2023-02-12T18:04:07.826Z,7.97
2023-02-12T18:06:34.318Z,7.25
2023-02-12T18:09:01.971Z,4.68
2023-02-12T18:11:29.415Z,5.72
2023-02-12T18:13:57.536Z,6.43
2023-02-12T18:16:24.888Z,5.38
2023-02-12T18:18:51.395Z,4.55
2023-02-12T18:21:18.379Z,4.30
2023-02-12T18:23:45.255Z,3.95
2023-02-12T18:26:13.444Z,6.07
2023-02-12T18:28:40.026Z,4.90
2023-02-12T18:31:06.944Z,7.20
2023-02-12T18:33:33.666Z,5.78
2023-02-12T18:36:05.873Z,3.42
2023-02-12T18:38:33.111Z,3.70
2023-02-12T18:41:02.458Z,4.05
2023-02-12T18:43:29.330Z,4.85
2023-02-12T18:45:55.880Z,3.20
2023-02-12T18:48:23.248Z,8.15
2023-02-12T18:50:51.868Z,3.50
2023-02-12T18:55:53.650Z,7.85
2023-02-12T18:58:20.134Z,4.45
2023-02-12T19:00:46.604Z,3.97
2023-02-12T19:03:13.109Z,5.00
2023-02-12T19:05:39.558Z,5.03
2023-02-12T19:08:06.019Z,3.80
2023-02-12T19:10:32.594Z,4.45
2023-02-12T19:12:59.261Z,2.40
2023-02-12T19:15:25.785Z,1.63
2023-02-12T19:17:53.581Z,17.45
2023-02-12T19:20:20.217Z,3.03
2023-02-12T19:22:47.302Z,3.10
2023-02-12T19:25:13.904Z,2.10
2023-02-12T19:27:40.567Z,4.03
2023-02-12T19:30:07.734Z,5.30
2023-02-12T19:32:34.389Z,7.70
2023-02-12T19:35:00.979Z,4.35
2023-02-12T19:37:27.425Z,4.13
2023-02-12T19:39:53.961Z,2.45
2023-02-12T19:42:20.615Z,6.88
2023-02-12T19:44:47.441Z,2.63
2023-02-12T19:47:13.979Z,4.43
2023-02-12T19:49:41.416Z,8.30
2023-02-12T19:52:08.025Z,4.72
2023-02-12T19:54:34.977Z,3.13
2023-02-12T19:57:01.426Z,3.83
2023-02-12T19:59:27.958Z,7.72
2023-02-12T20:01:54.661Z,62.35
2023-02-12T20:04:22.317Z,9.93
2023-02-12T20:06:51.014Z,21.90
2023-02-12T20:09:17.941Z,36.65
2023-02-12T20:11:44.404Z,29.40
2023-02-12T20:14:11.769Z,24.52
2023-02-12T20:16:41.596Z,26.50
2023-02-12T20:19:34.363Z,11.75
2023-02-12T20:22:01.736Z,27.80
2023-02-12T20:24:29.669Z,13.15
2023-02-12T20:26:57.557Z,21.90
2023-02-12T20:29:24.353Z,6.60
2023-02-12T20:31:51.042Z,7.20
2023-02-12T20:34:18.797Z,26.83
2023-02-12T20:36:46.482Z,16.95
2023-02-12T20:39:14.207Z,7.25
2023-02-12T20:41:41.044Z,7.75
2023-02-12T20:44:09.245Z,10.90
2023-02-12T20:46:42.605Z,10.15
2023-02-12T20:49:11.569Z,10.50
2023-02-12T20:51:38.061Z,6.35
2023-02-12T20:56:39.700Z,9.82
2023-02-12T20:59:06.885Z,9.73
2023-02-12T21:01:35.094Z,10.90
2023-02-12T21:04:08.866Z,4.43
2023-02-12T21:06:36.126Z,6.03
2023-02-12T21:09:03.064Z,8.90
2023-02-12T21:11:30.059Z,3.35
2023-02-12T21:14:02.205Z,14.68
2023-02-12T21:16:32.408Z,4.72
2023-02-12T21:18:59.184Z,19.75
2023-02-12T21:21:29.612Z,12.27
2023-02-12T21:23:56.988Z,17.10
2023-02-12T21:26:24.783Z,5.32
2023-02-12T21:28:51.972Z,4.20
2023-02-12T21:31:23.082Z,12.45
2023-02-12T21:33:50.493Z,3.63
2023-02-12T21:36:21.346Z,4.07
2023-02-12T21:38:49.102Z,6.90
2023-02-12T21:41:26.222Z,4.95
2023-02-12T21:43:54.382Z,4.82
2023-02-12T21:46:22.510Z,4.68
2023-02-12T21:48:49.575Z,5.85
2023-02-12T21:51:20.376Z,4.60
2023-02-12T21:53:47.849Z,7.05
2023-02-12T21:56:14.812Z,3.85
2023-02-12T21:58:41.860Z,5.47
2023-02-12T22:01:12.971Z,5.40
2023-02-12T22:03:39.531Z,4.07
2023-02-12T22:06:06.938Z,3.13
2023-02-12T22:08:34.561Z,3.88
2023-02-12T22:11:05.371Z,4.75
2023-02-12T22:13:32.037Z,10.05
2023-02-12T22:16:07.187Z,6.10
2023-02-12T22:18:33.699Z,2.78
2023-02-12T22:21:00.698Z,4.68
2023-02-12T22:23:27.186Z,3.53
2023-02-12T22:25:53.690Z,3.58
2023-02-12T22:28:20.328Z,5.88
2023-02-12T22:30:46.817Z,4.18
2023-02-12T22:33:13.338Z,3.72
2023-02-12T22:35:39.813Z,3.05
2023-02-12T22:38:06.299Z,2.78
2023-02-12T22:40:32.788Z,3.85
2023-02-12T22:42:59.559Z,4.72
2023-02-12T22:45:26.746Z,2.85
2023-02-12T22:47:55.394Z,2.88
2023-02-12T22:50:22.736Z,2.78
2023-02-12T22:52:49.254Z,3.53
2023-02-12T22:55:15.745Z,2.72
2023-02-12T22:57:42.565Z,2.90
2023-02-12T23:00:09.480Z,2.35
2023-02-12T23:02:35.947Z,3.15
2023-02-12T23:05:02.404Z,2.45
2023-02-12T23:07:28.980Z,2.90
2023-02-12T23:09:55.506Z,3.38
2023-02-12T23:12:21.973Z,3.20
2023-02-12T23:14:48.608Z,3.33
2023-02-12T23:17:15.080Z,2.70
2023-02-12T23:19:41.537Z,4.22
2023-02-12T23:22:08.265Z,3.30
2023-02-12T23:24:34.817Z,6.32
2023-02-12T23:27:01.281Z,3.28
2023-02-12T23:29:27.823Z,5.13
2023-02-12T23:31:54.312Z,2.88
2023-02-12T23:34:20.826Z,6.68
2023-02-12T23:36:47.299Z,6.22
2023-02-12T23:39:13.920Z,7.63
2023-02-12T23:41:40.534Z,6.93
2023-02-12T23:44:07.880Z,3.10
2023-02-12T23:46:34.398Z,4.88
2023-02-12T23:49:00.941Z,4.32
2023-02-12T23:51:27.464Z,3.15
2023-02-12T23:53:53.923Z,3.97
2023-02-12T23:56:20.513Z,3.75
2023-02-12T23:58:47.020Z,4.22
